Alton, Missouri
Current Conditions -  °F | °C
As of 5:53 AM on Friday 21 Nov 2014 (Local Time) from KUNO Reporting Station
Overcast Overcast  
Wind Chill: -2°   Ceiling: 2400
Heat Index:   Visibility: 10mi
Dew Point: -5°   Wind: 7mph
Humidity: 64%   Direction: 90°E
Pressure: 30.28"   Gusts: NA
Location:  36.69°N, 91.4°W
Report Text: KUNO 211153Z AUTO 09006KT 10SM OVC024 01/M05 A3028 RMK AO2 SLP259 T00111050 10011 21017 53004
Loading
Personal Weather Stations






























Interactive Weather Map New forecast layout! Learn more

10-Day Weather Forecast

Advertisements
Track Severe Weather on mobile